Terminal Aerodrome Forecast
Issued by NWS

Home | Current Version | Previous Version | Text Only | Print | Product List | Glossary On
Versions: 1 2 3 4 5 6 7 8 9 10 11 12 13 14 15 16
000
FTUS45 KRIW 251200 AAA
TAFCPR
TAF AMD
KCPR 251224Z 2512/2612 03011KT 1SM -SN OVC015
      TEMPO 2513/2514 1/2SM SN SCT006 OVC012
     FM251530 35009KT 5SM -SN SCT015 OVC030
     FM251800 33008KT P6SM VCSH SCT035 BKN050
     FM260100 29007KT P6SM SCT050 BKN080
     FM260500 25006KT P6SM FEW090
     FM260900 VRB05KT P6SM SKC=

USA.gov is the U.S. government's official web portal to all federal, state and local government web resources and services.